createdAt,value
2022-12-28T00:01:46.670Z,100.00
2022-12-28T00:04:15.679Z,100.00
2022-12-28T00:06:42.876Z,100.00
2022-12-28T00:09:12.851Z,100.00
2022-12-28T00:15:46.008Z,100.00
2022-12-28T00:18:12.944Z,100.00
2022-12-28T00:20:39.925Z,100.00
2022-12-28T00:23:06.972Z,100.00
2022-12-28T00:25:37.085Z,100.00
2022-12-28T00:28:04.309Z,100.00
2022-12-28T00:30:31.252Z,100.00
2022-12-28T00:32:58.587Z,100.00
2022-12-28T00:35:25.552Z,100.00
2022-12-28T00:37:53.340Z,100.00
2022-12-28T00:40:23.926Z,100.00
2022-12-28T00:42:51.298Z,100.00
2022-12-28T00:45:18.323Z,100.00
2022-12-28T00:47:45.318Z,100.00
2022-12-28T00:50:12.410Z,100.00
2022-12-28T00:52:39.379Z,100.00
2022-12-28T00:55:06.586Z,100.00
2022-12-28T00:57:33.887Z,100.00
2022-12-28T01:00:00.843Z,100.00
2022-12-28T01:02:27.816Z,100.00
2022-12-28T01:04:54.786Z,100.00
2022-12-28T01:07:21.766Z,100.00
2022-12-28T01:09:48.754Z,100.00
2022-12-28T01:12:15.697Z,100.00
2022-12-28T01:14:42.643Z,100.00
2022-12-28T01:17:09.612Z,100.00
2022-12-28T01:19:36.614Z,100.00
2022-12-28T01:22:03.743Z,100.00
2022-12-28T01:24:30.691Z,100.00
2022-12-28T01:26:57.677Z,100.00
2022-12-28T01:29:24.630Z,100.00
2022-12-28T01:31:51.660Z,100.00
2022-12-28T01:34:18.608Z,100.00
2022-12-28T01:36:45.621Z,100.00
2022-12-28T01:39:12.602Z,100.00
2022-12-28T01:41:42.359Z,100.00
2022-12-28T01:44:10.400Z,100.00
2022-12-28T01:46:55.008Z,100.00
2022-12-28T01:49:41.357Z,100.00
2022-12-28T01:52:17.388Z,100.00
2022-12-28T01:54:54.322Z,100.00
2022-12-28T01:57:28.831Z,100.00
2022-12-28T02:00:08.775Z,100.00
2022-12-28T02:02:36.853Z,100.00
2022-12-28T02:05:04.932Z,100.00
2022-12-28T02:07:49.952Z,100.00
2022-12-28T02:10:44.000Z,100.00
2022-12-28T02:13:06.797Z,100.00
2022-12-28T02:15:33.866Z,100.00
2022-12-28T02:18:01.194Z,100.00
2022-12-28T02:20:44.663Z,100.00
2022-12-28T02:23:38.779Z,100.00
2022-12-28T02:26:35.171Z,100.00
2022-12-28T02:29:25.521Z,100.00
2022-12-28T02:32:13.803Z,100.00
2022-12-28T02:34:48.520Z,100.00
2022-12-28T02:37:42.344Z,100.00
2022-12-28T02:40:17.816Z,100.00
2022-12-28T02:42:46.598Z,100.00
2022-12-28T02:45:57.635Z,100.00
2022-12-28T02:48:43.601Z,100.00
2022-12-28T02:51:39.597Z,100.00
2022-12-28T02:54:33.916Z,100.00
2022-12-28T02:57:34.311Z,100.00
2022-12-28T03:00:06.954Z,100.00
2022-12-28T03:03:04.002Z,100.00
2022-12-28T03:06:16.021Z,100.00
2022-12-28T03:09:18.125Z,100.00
2022-12-28T03:11:53.562Z,100.00
2022-12-28T03:14:48.508Z,100.00
2022-12-28T03:17:37.813Z,100.00
2022-12-28T03:20:30.879Z,100.00
2022-12-28T03:23:19.554Z,100.00
2022-12-28T03:26:06.146Z,100.00
2022-12-28T03:28:53.820Z,100.00
2022-12-28T03:31:25.171Z,100.00
2022-12-28T03:34:06.769Z,100.00
2022-12-28T03:36:52.139Z,100.00
2022-12-28T03:40:03.502Z,100.00
2022-12-28T03:43:06.035Z,100.00
2022-12-28T03:46:04.946Z,100.00
2022-12-28T03:48:34.764Z,100.00
2022-12-28T03:51:01.753Z,100.00
2022-12-28T03:53:41.267Z,100.00
2022-12-28T03:56:15.480Z,100.00
2022-12-28T03:58:42.966Z,100.00
2022-12-28T04:01:10.381Z,100.00
2022-12-28T04:03:37.958Z,100.00
2022-12-28T04:06:05.734Z,100.00
2022-12-28T04:08:34.487Z,100.00
2022-12-28T04:11:02.068Z,100.00
2022-12-28T04:13:32.963Z,100.00
2022-12-28T04:16:07.197Z,100.00
2022-12-28T04:18:34.837Z,100.00
2022-12-28T04:21:02.444Z,100.00
2022-12-28T04:23:31.055Z,100.00
2022-12-28T04:26:02.406Z,100.00
2022-12-28T04:28:30.372Z,100.00
2022-12-28T04:30:58.791Z,100.00
2022-12-28T04:33:26.583Z,100.00
2022-12-28T04:35:54.159Z,100.00
2022-12-28T04:38:21.850Z,100.00
2022-12-28T04:40:48.835Z,100.00
2022-12-28T04:43:15.898Z,100.00
2022-12-28T04:45:42.883Z,100.00
2022-12-28T04:48:09.853Z,100.00
2022-12-28T04:50:37.588Z,100.00
2022-12-28T04:53:04.561Z,100.00
2022-12-28T04:55:33.555Z,100.00
2022-12-28T04:58:01.180Z,100.00
2022-12-28T05:00:28.217Z,100.00
2022-12-28T05:02:58.905Z,100.00
2022-12-28T05:05:26.843Z,100.00
2022-12-28T05:07:53.920Z,100.00
2022-12-28T05:10:21.249Z,100.00
2022-12-28T05:12:48.419Z,100.00
2022-12-28T05:15:15.467Z,100.00
2022-12-28T05:17:42.406Z,100.00
2022-12-28T05:20:10.088Z,100.00
2022-12-28T05:22:40.830Z,100.00
2022-12-28T05:25:08.705Z,100.00
2022-12-28T05:27:35.686Z,100.00
2022-12-28T05:30:02.668Z,100.00
2022-12-28T05:32:29.682Z,100.00
2022-12-28T05:34:56.724Z,100.00
2022-12-28T05:37:23.858Z,100.00
2022-12-28T05:39:50.851Z,100.00
2022-12-28T05:42:17.899Z,100.00
2022-12-28T05:44:44.822Z,100.00
2022-12-28T05:47:11.873Z,100.00
2022-12-28T05:49:38.865Z,100.00
2022-12-28T05:52:05.848Z,100.00
2022-12-28T05:54:32.787Z,100.00
2022-12-28T05:56:59.952Z,100.00
2022-12-28T05:59:27.180Z,100.00
2022-12-28T06:01:59.408Z,100.00
2022-12-28T06:04:26.831Z,100.00
2022-12-28T06:07:01.308Z,100.00
2022-12-28T06:09:28.310Z,100.00
2022-12-28T06:11:55.298Z,100.00
2022-12-28T06:14:22.422Z,100.00
2022-12-28T06:16:49.656Z,100.00
2022-12-28T06:19:16.783Z,100.00
2022-12-28T06:21:44.184Z,100.00
2022-12-28T06:24:13.923Z,100.00
2022-12-28T06:26:42.041Z,100.00
2022-12-28T06:29:10.125Z,100.00
2022-12-28T06:31:40.646Z,100.00
2022-12-28T06:34:09.831Z,100.00
2022-12-28T06:36:42.495Z,100.00
2022-12-28T06:39:13.529Z,100.00
2022-12-28T06:41:41.214Z,100.00
2022-12-28T06:44:10.844Z,100.00
2022-12-28T06:46:38.564Z,100.00
2022-12-28T06:49:06.054Z,100.00
2022-12-28T06:51:42.340Z,100.00
2022-12-28T06:54:12.600Z,100.00
2022-12-28T06:56:40.007Z,100.00
2022-12-28T06:59:07.504Z,100.00
2022-12-28T07:01:40.709Z,100.00
2022-12-28T07:04:09.648Z,100.00
2022-12-28T07:06:44.485Z,100.00
2022-12-28T07:09:14.872Z,100.00
2022-12-28T07:11:43.150Z,100.00
2022-12-28T07:14:10.394Z,100.00
2022-12-28T07:19:03.653Z,100.00
2022-12-28T07:21:36.758Z,100.00
2022-12-28T07:24:05.698Z,100.00
2022-12-28T07:26:35.419Z,100.00
2022-12-28T07:29:04.865Z,100.00
2022-12-28T07:31:41.703Z,100.00
2022-12-28T07:34:11.381Z,100.00
2022-12-28T07:36:38.449Z,100.00
2022-12-28T07:39:05.488Z,100.00
2022-12-28T07:41:34.236Z,100.00
2022-12-28T07:44:02.265Z,100.00
2022-12-28T07:46:34.069Z,100.00
2022-12-28T07:49:01.319Z,100.00
2022-12-28T07:51:37.165Z,100.00
2022-12-28T07:54:05.473Z,100.00
2022-12-28T07:59:05.619Z,100.00
2022-12-28T08:01:35.918Z,100.00
2022-12-28T08:04:07.827Z,100.00
2022-12-28T08:06:38.702Z,100.00
2022-12-28T08:09:07.374Z,100.00
2022-12-28T08:11:38.238Z,100.00
2022-12-28T08:14:06.633Z,100.00
2022-12-28T08:16:39.892Z,100.00
2022-12-28T08:19:08.546Z,100.00
2022-12-28T08:21:40.221Z,100.00
2022-12-28T08:24:09.339Z,100.00
2022-12-28T08:26:40.394Z,100.00
2022-12-28T08:29:12.627Z,100.00
2022-12-28T08:31:42.683Z,100.00
2022-12-28T08:34:18.536Z,100.00
2022-12-28T08:36:45.782Z,100.00
2022-12-28T08:39:12.798Z,100.00
2022-12-28T08:41:40.399Z,100.00
2022-12-28T08:44:07.431Z,100.00
2022-12-28T08:46:36.338Z,100.00
2022-12-28T08:49:05.909Z,100.00
2022-12-28T08:51:41.890Z,100.00
2022-12-28T08:54:12.528Z,100.00
2022-12-28T08:56:42.995Z,100.00
2022-12-28T08:59:17.061Z,100.00
2022-12-28T09:01:45.700Z,100.00
2022-12-28T09:04:19.708Z,100.00
2022-12-28T09:06:47.823Z,100.00
2022-12-28T09:09:17.850Z,100.00
2022-12-28T09:11:45.072Z,100.00
2022-12-28T09:14:22.066Z,100.00
2022-12-28T09:16:50.099Z,100.00
2022-12-28T09:19:17.304Z,100.00
2022-12-28T09:21:48.946Z,100.00
2022-12-28T09:24:16.469Z,100.00
2022-12-28T09:26:43.854Z,100.00
2022-12-28T09:29:13.870Z,100.00
2022-12-28T09:31:42.055Z,100.00
2022-12-28T09:37:12.216Z,100.00
2022-12-28T09:39:48.513Z,100.00
2022-12-28T09:42:29.138Z,100.00
2022-12-28T09:45:11.436Z,100.00
2022-12-28T09:47:44.714Z,100.00
2022-12-28T09:50:17.667Z,100.00
2022-12-28T09:53:05.397Z,100.00
2022-12-28T09:55:37.167Z,99.84
2022-12-28T09:58:13.224Z,99.67
2022-12-28T10:00:56.405Z,99.62
2022-12-28T10:03:44.464Z,99.37
2022-12-28T10:06:28.717Z,99.29
2022-12-28T10:08:59.554Z,99.31
2022-12-28T10:11:35.125Z,98.90
2022-12-28T10:14:17.187Z,98.47
2022-12-28T10:16:48.703Z,98.04
2022-12-28T10:19:23.843Z,98.31
2022-12-28T10:22:14.171Z,97.83
2022-12-28T10:24:42.227Z,97.98
2022-12-28T10:27:25.364Z,97.52
2022-12-28T10:29:53.820Z,97.45
2022-12-28T10:32:27.332Z,96.52
2022-12-28T10:35:03.938Z,96.77
2022-12-28T10:37:35.685Z,95.40
2022-12-28T10:40:15.059Z,95.10
2022-12-28T10:42:46.789Z,94.80
2022-12-28T10:45:23.788Z,93.69
2022-12-28T10:47:54.348Z,93.65
2022-12-28T10:50:51.400Z,92.88
2022-12-28T10:53:29.107Z,92.58
2022-12-28T10:56:31.760Z,92.11
2022-12-28T10:59:11.283Z,91.58
2022-12-28T11:01:40.020Z,91.33
2022-12-28T11:04:25.296Z,90.86
2022-12-28T11:06:53.678Z,90.83
2022-12-28T11:09:23.706Z,90.90
2022-12-28T11:11:53.966Z,90.99
2022-12-28T11:14:35.476Z,90.86
2022-12-28T11:17:25.742Z,90.52
2022-12-28T11:20:01.134Z,91.16
2022-12-28T11:22:30.295Z,91.69
2022-12-28T11:24:59.611Z,91.92
2022-12-28T11:27:27.045Z,92.62
2022-12-28T11:29:56.221Z,92.24
2022-12-28T11:32:57.231Z,92.34
2022-12-28T11:35:30.063Z,92.65
2022-12-28T11:38:03.473Z,92.14
2022-12-28T11:40:52.655Z,92.76
2022-12-28T11:43:28.568Z,92.97
2022-12-28T11:46:19.041Z,92.40
2022-12-28T11:49:23.894Z,93.04
2022-12-28T11:52:17.589Z,92.80
2022-12-28T11:55:01.369Z,92.61
2022-12-28T11:57:43.499Z,92.35
2022-12-28T12:00:22.879Z,92.05
2022-12-28T12:03:02.460Z,91.74
2022-12-28T12:05:38.475Z,91.23
2022-12-28T12:08:17.227Z,90.96
2022-12-28T12:10:49.376Z,90.82
2022-12-28T12:13:28.444Z,90.70
2022-12-28T12:16:17.656Z,91.19
2022-12-28T12:18:51.736Z,91.64
2022-12-28T12:21:36.595Z,92.14
2022-12-28T12:24:20.953Z,91.37
2022-12-28T12:26:58.709Z,91.20
2022-12-28T12:29:44.819Z,91.39
2022-12-28T12:32:41.923Z,91.43
2022-12-28T12:35:17.913Z,91.00
2022-12-28T12:38:13.630Z,91.28
2022-12-28T12:41:00.664Z,90.70
2022-12-28T12:43:57.045Z,91.12
2022-12-28T12:47:15.193Z,90.96
2022-12-28T12:50:13.315Z,91.22
2022-12-28T12:53:32.871Z,90.91
2022-12-28T12:56:33.566Z,91.12
2022-12-28T12:59:29.815Z,91.44
2022-12-28T13:02:12.344Z,90.85
2022-12-28T13:04:46.140Z,91.36
2022-12-28T13:07:24.504Z,90.26
2022-12-28T13:09:55.355Z,90.01
2022-12-28T13:12:23.959Z,90.12
2022-12-28T13:15:07.512Z,89.52
2022-12-28T13:17:39.573Z,89.87
2022-12-28T13:20:21.874Z,90.15
2022-12-28T13:22:50.033Z,90.00
2022-12-28T13:25:47.863Z,90.21
2022-12-28T13:28:57.680Z,89.83
2022-12-28T13:31:35.862Z,89.42
2022-12-28T13:34:13.331Z,89.51
2022-12-28T13:36:58.369Z,89.43
2022-12-28T13:39:29.598Z,89.23
2022-12-28T13:42:00.615Z,89.33
2022-12-28T13:44:30.792Z,89.17
2022-12-28T13:47:35.915Z,89.39
2022-12-28T13:50:14.415Z,89.57
2022-12-28T13:52:59.392Z,88.98
2022-12-28T13:55:43.362Z,89.44
2022-12-28T13:58:20.347Z,89.47
2022-12-28T14:00:50.147Z,89.41
2022-12-28T14:03:19.895Z,89.46
2022-12-28T14:05:59.309Z,89.39
2022-12-28T14:08:28.829Z,89.76
2022-12-28T14:10:56.844Z,90.06
2022-12-28T14:13:24.656Z,89.80
2022-12-28T14:15:52.551Z,89.83
2022-12-28T14:18:19.984Z,90.67
2022-12-28T14:20:49.004Z,90.67
2022-12-28T14:23:34.418Z,90.43
2022-12-28T14:26:10.968Z,90.55
2022-12-28T14:28:48.495Z,90.52
2022-12-28T14:31:24.156Z,90.04
2022-12-28T14:34:02.955Z,89.79
2022-12-28T14:36:39.566Z,89.82
2022-12-28T14:39:07.691Z,90.16
2022-12-28T14:41:40.766Z,90.49
2022-12-28T14:44:24.508Z,90.36
2022-12-28T14:46:54.603Z,90.68
2022-12-28T14:49:34.853Z,90.83
2022-12-28T14:52:10.723Z,90.58
2022-12-28T14:54:46.292Z,90.41
2022-12-28T14:57:27.731Z,90.40
2022-12-28T15:00:23.876Z,90.33
2022-12-28T15:02:51.541Z,90.56
2022-12-28T15:05:41.396Z,90.83
2022-12-28T15:08:10.287Z,91.29
2022-12-28T15:11:00.675Z,90.84
2022-12-28T15:13:28.382Z,91.33
2022-12-28T15:16:02.250Z,91.05
2022-12-28T15:18:30.883Z,91.00
2022-12-28T15:21:03.598Z,91.13
2022-12-28T15:23:31.075Z,90.79
2022-12-28T15:25:58.253Z,90.94
2022-12-28T15:28:26.207Z,90.86
2022-12-28T15:30:53.209Z,91.13
2022-12-28T15:33:20.223Z,91.80
2022-12-28T15:35:47.176Z,91.67
2022-12-28T15:38:14.280Z,92.07
2022-12-28T15:40:41.492Z,92.13
2022-12-28T15:43:10.060Z,92.22
2022-12-28T15:45:37.311Z,92.61
2022-12-28T15:48:05.207Z,93.04
2022-12-28T15:50:32.468Z,93.15
2022-12-28T15:53:00.197Z,93.15
2022-12-28T15:55:27.117Z,93.28
2022-12-28T15:57:54.217Z,93.47
2022-12-28T16:00:21.621Z,93.47
2022-12-28T16:02:48.727Z,93.72
2022-12-28T16:05:16.155Z,93.49
2022-12-28T16:07:43.441Z,93.68
2022-12-28T16:10:10.646Z,93.89
2022-12-28T16:12:37.689Z,94.16
2022-12-28T16:15:05.510Z,94.01
2022-12-28T16:17:32.589Z,94.40
2022-12-28T16:19:59.522Z,94.27
2022-12-28T16:22:28.567Z,94.07
2022-12-28T16:24:55.545Z,94.60
2022-12-28T16:27:22.581Z,94.57
2022-12-28T16:29:53.989Z,95.00
2022-12-28T16:32:24.092Z,95.27
2022-12-28T16:34:51.123Z,95.25
2022-12-28T16:37:18.485Z,95.35
2022-12-28T16:39:46.024Z,95.87
2022-12-28T16:42:13.104Z,95.69
2022-12-28T16:44:40.551Z,96.31
2022-12-28T16:47:07.794Z,96.16
2022-12-28T16:49:41.495Z,96.57
2022-12-28T16:52:08.659Z,96.10
2022-12-28T16:54:37.455Z,96.33
2022-12-28T16:57:04.426Z,96.38
2022-12-28T16:59:31.560Z,96.97
2022-12-28T17:01:59.294Z,96.86
2022-12-28T17:04:26.626Z,96.93
2022-12-28T17:06:53.874Z,97.49
2022-12-28T17:09:21.376Z,97.40
2022-12-28T17:11:50.980Z,97.55
2022-12-28T17:14:35.988Z,97.46
2022-12-28T17:17:06.211Z,97.48
2022-12-28T17:19:34.037Z,97.48
2022-12-28T17:22:04.086Z,97.20
2022-12-28T17:24:31.532Z,97.46
2022-12-28T17:27:05.235Z,97.60
2022-12-28T17:29:35.215Z,98.04
2022-12-28T17:32:02.323Z,97.74
2022-12-28T17:34:30.908Z,97.97
2022-12-28T17:36:57.969Z,97.48
2022-12-28T17:39:25.939Z,97.40
2022-12-28T17:41:52.966Z,97.54
2022-12-28T17:44:20.151Z,97.69
2022-12-28T17:46:47.465Z,97.66
2022-12-28T17:49:16.174Z,97.22
2022-12-28T17:51:44.958Z,97.48
2022-12-28T17:54:14.835Z,97.87
2022-12-28T17:56:46.715Z,97.54
2022-12-28T17:59:16.975Z,97.51
2022-12-28T18:01:45.961Z,97.00
2022-12-28T18:04:13.071Z,96.83
2022-12-28T18:06:40.312Z,96.62
2022-12-28T18:09:08.422Z,96.36
2022-12-28T18:11:36.387Z,96.06
2022-12-28T18:14:03.982Z,95.42
2022-12-28T18:16:31.185Z,95.36
2022-12-28T18:18:59.912Z,95.23
2022-12-28T18:21:27.103Z,95.79
2022-12-28T18:23:54.046Z,96.02
2022-12-28T18:26:26.444Z,95.56
2022-12-28T18:28:55.986Z,95.86
2022-12-28T18:31:29.428Z,96.16
2022-12-28T18:33:56.659Z,95.69
2022-12-28T18:36:23.650Z,95.69
2022-12-28T18:38:50.855Z,95.79
2022-12-28T18:41:21.192Z,95.59
2022-12-28T18:43:51.020Z,95.75
2022-12-28T18:46:18.352Z,95.68
2022-12-28T18:48:45.454Z,95.94
2022-12-28T18:51:17.306Z,95.53
2022-12-28T18:53:45.559Z,95.38
2022-12-28T18:56:19.285Z,95.36
2022-12-28T18:58:52.504Z,95.42
2022-12-28T19:04:11.403Z,95.86
2022-12-28T19:06:39.320Z,95.57
2022-12-28T19:09:07.884Z,95.02
2022-12-28T19:11:36.411Z,94.91
2022-12-28T19:14:09.980Z,94.57
2022-12-28T19:16:37.104Z,94.05
2022-12-28T19:19:04.456Z,93.45
2022-12-28T19:21:36.949Z,93.07
2022-12-28T19:24:18.381Z,92.49
2022-12-28T19:26:46.996Z,92.26
2022-12-28T19:29:16.081Z,91.91
2022-12-28T19:31:43.432Z,91.02
2022-12-28T19:34:10.475Z,90.58
2022-12-28T19:36:37.647Z,89.47
2022-12-28T19:39:04.705Z,88.90
2022-12-28T19:41:35.640Z,88.04
2022-12-28T19:44:04.389Z,87.31
2022-12-28T19:46:32.321Z,87.28
2022-12-28T19:49:02.435Z,86.83
2022-12-28T19:51:32.327Z,86.83
2022-12-28T19:54:01.121Z,85.75
2022-12-28T19:56:28.416Z,85.48
2022-12-28T19:59:03.099Z,85.22
2022-12-28T20:01:32.482Z,85.31
2022-12-28T20:04:00.051Z,84.90
2022-12-28T20:06:30.015Z,84.69
2022-12-28T20:09:00.720Z,84.79
2022-12-28T20:11:29.637Z,84.76
2022-12-28T20:14:20.416Z,85.36
2022-12-28T20:17:17.116Z,85.15
2022-12-28T20:19:58.156Z,85.29
2022-12-28T20:22:29.505Z,84.92
2022-12-28T20:25:08.597Z,85.68
2022-12-28T20:27:36.309Z,85.83
2022-12-28T20:30:04.040Z,85.56
2022-12-28T20:32:30.961Z,85.78
2022-12-28T20:34:58.077Z,85.93
2022-12-28T20:37:25.088Z,86.05
2022-12-28T20:39:52.075Z,86.57
2022-12-28T20:42:37.864Z,86.98
2022-12-28T20:45:05.558Z,86.71
2022-12-28T20:47:32.873Z,86.93
2022-12-28T20:50:00.440Z,87.04
2022-12-28T20:52:27.471Z,87.84
2022-12-28T20:54:54.385Z,87.80
2022-12-28T20:57:29.795Z,87.70
2022-12-28T20:59:56.778Z,87.94
2022-12-28T21:02:23.798Z,88.17
2022-12-28T21:04:51.021Z,88.33
2022-12-28T21:07:19.628Z,88.14
2022-12-28T21:09:50.725Z,87.88
2022-12-28T21:12:17.853Z,87.84
2022-12-28T21:14:45.061Z,88.09
2022-12-28T21:17:22.597Z,88.96
2022-12-28T21:19:54.301Z,88.91
2022-12-28T21:22:23.832Z,89.15
2022-12-28T21:24:50.953Z,89.04
2022-12-28T21:27:17.893Z,89.63
2022-12-28T21:29:44.869Z,89.83
2022-12-28T21:32:13.182Z,89.37
2022-12-28T21:34:40.178Z,89.67
2022-12-28T21:37:25.817Z,89.57
2022-12-28T21:39:52.766Z,89.92
2022-12-28T21:42:19.701Z,90.01
2022-12-28T21:44:46.666Z,90.26
2022-12-28T21:47:13.606Z,90.55
2022-12-28T21:49:43.328Z,90.74
2022-12-28T21:52:10.286Z,90.99
2022-12-28T21:54:37.629Z,90.67
2022-12-28T21:57:07.843Z,90.99
2022-12-28T21:59:34.817Z,90.99
2022-12-28T22:02:20.694Z,90.75
2022-12-28T22:05:06.247Z,90.90
2022-12-28T22:07:35.169Z,90.46
2022-12-28T22:10:20.639Z,90.71
2022-12-28T22:12:47.572Z,90.71
2022-12-28T22:15:39.424Z,91.41
2022-12-28T22:21:08.025Z,91.22
2022-12-28T22:23:35.309Z,91.48
2022-12-28T22:26:02.820Z,91.22
2022-12-28T22:28:29.999Z,91.16
2022-12-28T22:30:56.954Z,91.47
2022-12-28T22:33:23.977Z,91.95
2022-12-28T22:35:51.000Z,91.91
2022-12-28T22:38:18.022Z,92.09
2022-12-28T22:40:44.969Z,92.32
2022-12-28T22:43:11.911Z,92.44
2022-12-28T22:45:38.904Z,92.67
2022-12-28T22:48:06.222Z,92.71
2022-12-28T22:50:36.867Z,93.12
2022-12-28T22:53:06.801Z,93.07
2022-12-28T22:55:33.793Z,93.04
2022-12-28T22:58:00.764Z,93.32
2022-12-28T23:00:27.700Z,92.76
2022-12-28T23:02:54.741Z,92.07
2022-12-28T23:05:21.933Z,91.24
2022-12-28T23:07:48.885Z,90.73
2022-12-28T23:10:15.963Z,89.54
2022-12-28T23:12:43.042Z,89.24
2022-12-28T23:15:19.058Z,88.78
2022-12-28T23:17:48.608Z,88.84
2022-12-28T23:20:34.665Z,88.64
2022-12-28T23:23:19.913Z,89.01
2022-12-28T23:26:05.516Z,89.16
2022-12-28T23:28:35.816Z,88.72
2022-12-28T23:31:03.455Z,89.20
2022-12-28T23:33:30.508Z,87.75
2022-12-28T23:36:02.992Z,86.78
2022-12-28T23:38:32.926Z,86.80
2022-12-28T23:41:24.331Z,86.32
2022-12-28T23:43:51.658Z,86.56
2022-12-28T23:46:18.659Z,86.97
2022-12-28T23:48:45.666Z,87.79
2022-12-28T23:51:12.644Z,87.94
2022-12-28T23:53:39.604Z,88.13
2022-12-28T23:56:07.294Z,87.40
2022-12-28T23:58:34.235Z,87.47
